sensor_id;sensor_type;location;lat;lon;timestamp;P1;durP1;ratioP1;P2;durP2;ratioP2
25980;SDS011;13772;52.996;9.124;2024-01-25T07:05:01;18.98;;;4.40;;
25980;SDS011;13772;52.996;9.124;2024-01-25T07:07:26;20.90;;;4.88;;
25980;SDS011;13772;52.996;9.124;2024-01-25T07:09:52;26.38;;;4.38;;
25980;SDS011;13772;52.996;9.124;2024-01-25T07:12:17;25.58;;;5.15;;
25980;SDS011;13772;52.996;9.124;2024-01-25T07:14:42;29.10;;;5.25;;
25980;SDS011;13772;52.996;9.124;2024-01-25T07:17:07;24.73;;;4.80;;
25980;SDS011;13772;52.996;9.124;2024-01-25T07:19:33;26.95;;;5.50;;
25980;SDS011;13772;52.996;9.124;2024-01-25T07:21:58;32.28;;;5.55;;
25980;SDS011;13772;52.996;9.124;2024-01-25T07:24:23;27.83;;;5.25;;
25980;SDS011;13772;52.996;9.124;2024-01-25T07:26:48;35.92;;;6.20;;
25980;SDS011;13772;52.996;9.124;2024-01-25T07:29:14;26.52;;;6.10;;
25980;SDS011;13772;52.996;9.124;2024-01-25T07:31:39;29.20;;;5.72;;
25980;SDS011;13772;52.996;9.124;2024-01-25T07:34:05;34.65;;;6.10;;
25980;SDS011;13772;52.996;9.124;2024-01-25T07:36:30;32.00;;;6.60;;
25980;SDS011;13772;52.996;9.124;2024-01-25T07:38:55;30.90;;;5.90;;
25980;SDS011;13772;52.996;9.124;2024-01-25T07:41:21;30.92;;;5.45;;
25980;SDS011;13772;52.996;9.124;2024-01-25T07:43:47;35.95;;;5.72;;
25980;SDS011;13772;52.996;9.124;2024-01-25T07:46:12;33.58;;;6.13;;
25980;SDS011;13772;52.996;9.124;2024-01-25T07:48:39;26.20;;;5.47;;
25980;SDS011;13772;52.996;9.124;2024-01-25T07:51:10;29.55;;;5.20;;
25980;SDS011;13772;52.996;9.124;2024-01-25T07:53:35;27.15;;;5.07;;
25980;SDS011;13772;52.996;9.124;2024-01-25T07:56:00;23.25;;;5.25;;
25980;SDS011;13772;52.996;9.124;2024-01-25T07:58:26;33.17;;;5.30;;
25980;SDS011;13772;52.996;9.124;2024-01-25T08:00:51;37.65;;;6.03;;
25980;SDS011;13772;52.996;9.124;2024-01-25T08:03:17;32.13;;;5.50;;
25980;SDS011;13772;52.996;9.124;2024-01-25T08:05:42;36.58;;;5.40;;
25980;SDS011;13772;52.996;9.124;2024-01-25T08:08:08;31.80;;;5.32;;
25980;SDS011;13772;52.996;9.124;2024-01-25T08:10:33;31.70;;;5.72;;
25980;SDS011;13772;52.996;9.124;2024-01-25T08:12:58;37.53;;;5.85;;
25980;SDS011;13772;52.996;9.124;2024-01-25T08:15:24;29.38;;;5.07;;
25980;SDS011;13772;52.996;9.124;2024-01-25T08:17:49;31.23;;;5.32;;
25980;SDS011;13772;52.996;9.124;2024-01-25T08:20:14;27.08;;;5.05;;
25980;SDS011;13772;52.996;9.124;2024-01-25T08:22:42;28.27;;;5.07;;
25980;SDS011;13772;52.996;9.124;2024-01-25T08:25:08;32.05;;;5.13;;
25980;SDS011;13772;52.996;9.124;2024-01-25T08:27:33;35.15;;;5.53;;
25980;SDS011;13772;52.996;9.124;2024-01-25T08:29:58;33.60;;;5.70;;
25980;SDS011;13772;52.996;9.124;2024-01-25T08:32:24;26.10;;;5.50;;
25980;SDS011;13772;52.996;9.124;2024-01-25T08:34:49;31.08;;;6.28;;
25980;SDS011;13772;52.996;9.124;2024-01-25T08:37:14;35.17;;;5.55;;
25980;SDS011;13772;52.996;9.124;2024-01-25T08:39:39;26.58;;;4.65;;
25980;SDS011;13772;52.996;9.124;2024-01-25T08:42:04;27.35;;;4.13;;
25980;SDS011;13772;52.996;9.124;2024-01-25T08:44:31;32.55;;;5.50;;
25980;SDS011;13772;52.996;9.124;2024-01-25T08:46:56;25.60;;;5.13;;
25980;SDS011;13772;52.996;9.124;2024-01-25T08:49:22;33.40;;;5.85;;
25980;SDS011;13772;52.996;9.124;2024-01-25T08:51:47;31.00;;;4.78;;
25980;SDS011;13772;52.996;9.124;2024-01-25T08:54:12;30.65;;;4.80;;
25980;SDS011;13772;52.996;9.124;2024-01-25T08:56:37;37.78;;;5.22;;
25980;SDS011;13772;52.996;9.124;2024-01-25T08:59:02;31.95;;;6.13;;
25980;SDS011;13772;52.996;9.124;2024-01-25T09:01:28;28.92;;;4.82;;
25980;SDS011;13772;52.996;9.124;2024-01-25T09:03:53;37.95;;;5.85;;
25980;SDS011;13772;52.996;9.124;2024-01-25T09:06:18;28.95;;;6.32;;
25980;SDS011;13772;52.996;9.124;2024-01-25T09:08:43;38.72;;;6.53;;
25980;SDS011;13772;52.996;9.124;2024-01-25T09:11:09;20.70;;;4.75;;
25980;SDS011;13772;52.996;9.124;2024-01-25T09:13:34;32.60;;;5.07;;
25980;SDS011;13772;52.996;9.124;2024-01-25T09:15:59;29.73;;;5.20;;
25980;SDS011;13772;52.996;9.124;2024-01-25T09:18:24;28.45;;;6.03;;
25980;SDS011;13772;52.996;9.124;2024-01-25T09:20:50;32.80;;;5.22;;
25980;SDS011;13772;52.996;9.124;2024-01-25T09:23:15;29.88;;;6.07;;
25980;SDS011;13772;52.996;9.124;2024-01-25T09:25:41;28.35;;;6.85;;
25980;SDS011;13772;52.996;9.124;2024-01-25T09:28:07;23.52;;;4.53;;
25980;SDS011;13772;52.996;9.124;2024-01-25T09:30:32;30.77;;;4.82;;
25980;SDS011;13772;52.996;9.124;2024-01-25T09:32:57;31.67;;;5.93;;
25980;SDS011;13772;52.996;9.124;2024-01-25T09:35:22;25.90;;;5.20;;
25980;SDS011;13772;52.996;9.124;2024-01-25T09:37:48;27.45;;;5.40;;
25980;SDS011;13772;52.996;9.124;2024-01-25T09:40:13;34.38;;;5.57;;
25980;SDS011;13772;52.996;9.124;2024-01-25T09:42:38;26.30;;;5.38;;
25980;SDS011;13772;52.996;9.124;2024-01-25T09:45:05;30.10;;;5.63;;
25980;SDS011;13772;52.996;9.124;2024-01-25T09:47:31;39.55;;;5.13;;
25980;SDS011;13772;52.996;9.124;2024-01-25T09:49:56;30.35;;;5.35;;
25980;SDS011;13772;52.996;9.124;2024-01-25T09:52:21;27.90;;;4.72;;
25980;SDS011;13772;52.996;9.124;2024-01-25T09:54:50;26.88;;;5.30;;
25980;SDS011;13772;52.996;9.124;2024-01-25T09:57:17;27.60;;;5.43;;
25980;SDS011;13772;52.996;9.124;2024-01-25T09:59:46;26.33;;;4.63;;
25980;SDS011;13772;52.996;9.124;2024-01-25T10:02:12;25.67;;;5.03;;
25980;SDS011;13772;52.996;9.124;2024-01-25T10:04:37;31.10;;;5.20;;
25980;SDS011;13772;52.996;9.124;2024-01-25T10:07:03;23.98;;;5.32;;
25980;SDS011;13772;52.996;9.124;2024-01-25T10:09:28;27.05;;;5.05;;
25980;SDS011;13772;52.996;9.124;2024-01-25T10:11:56;25.85;;;5.68;;
25980;SDS011;13772;52.996;9.124;2024-01-25T10:14:21;28.15;;;5.07;;
25980;SDS011;13772;52.996;9.124;2024-01-25T10:16:46;29.95;;;6.35;;
25980;SDS011;13772;52.996;9.124;2024-01-25T10:19:12;27.75;;;4.88;;
25980;SDS011;13772;52.996;9.124;2024-01-25T10:21:37;22.75;;;5.13;;
25980;SDS011;13772;52.996;9.124;2024-01-25T10:24:02;30.88;;;5.70;;
25980;SDS011;13772;52.996;9.124;2024-01-25T10:26:28;29.00;;;4.72;;
25980;SDS011;13772;52.996;9.124;2024-01-25T10:28:53;26.45;;;5.72;;
25980;SDS011;13772;52.996;9.124;2024-01-25T10:31:19;26.15;;;6.28;;
25980;SDS011;13772;52.996;9.124;2024-01-25T10:33:44;29.25;;;6.03;;
25980;SDS011;13772;52.996;9.124;2024-01-25T10:36:10;26.15;;;4.72;;
25980;SDS011;13772;52.996;9.124;2024-01-25T10:38:36;25.33;;;5.25;;
25980;SDS011;13772;52.996;9.124;2024-01-25T10:41:02;30.40;;;5.75;;
25980;SDS011;13772;52.996;9.124;2024-01-25T10:43:31;20.20;;;5.03;;
25980;SDS011;13772;52.996;9.124;2024-01-25T10:45:56;11.88;;;2.08;;
25980;SDS011;13772;52.996;9.124;2024-01-25T10:48:23;9.73;;;2.00;;
25980;SDS011;13772;52.996;9.124;2024-01-25T10:50:49;7.75;;;2.38;;
25980;SDS011;13772;52.996;9.124;2024-01-25T10:53:15;9.32;;;2.13;;
25980;SDS011;13772;52.996;9.124;2024-01-25T10:55:40;23.02;;;4.43;;
25980;SDS011;13772;52.996;9.124;2024-01-25T10:58:06;27.00;;;5.47;;
25980;SDS011;13772;52.996;9.124;2024-01-25T11:00:31;31.40;;;5.68;;
25980;SDS011;13772;52.996;9.124;2024-01-25T11:02:58;21.77;;;5.18;;
25980;SDS011;13772;52.996;9.124;2024-01-25T11:05:23;33.63;;;4.95;;
25980;SDS011;13772;52.996;9.124;2024-01-25T11:07:48;31.73;;;5.63;;
25980;SDS011;13772;52.996;9.124;2024-01-25T11:10:17;22.73;;;4.07;;
25980;SDS011;13772;52.996;9.124;2024-01-25T11:12:56;27.67;;;4.20;;
25980;SDS011;13772;52.996;9.124;2024-01-25T11:15:22;23.30;;;4.40;;
25980;SDS011;13772;52.996;9.124;2024-01-25T11:17:54;26.75;;;4.53;;
25980;SDS011;13772;52.996;9.124;2024-01-25T11:20:20;20.35;;;4.30;;
25980;SDS011;13772;52.996;9.124;2024-01-25T11:22:46;29.75;;;5.35;;
25980;SDS011;13772;52.996;9.124;2024-01-25T11:25:20;25.33;;;4.60;;
25980;SDS011;13772;52.996;9.124;2024-01-25T11:27:46;20.42;;;5.15;;
25980;SDS011;13772;52.996;9.124;2024-01-25T11:30:11;28.08;;;4.80;;
25980;SDS011;13772;52.996;9.124;2024-01-25T11:32:38;29.00;;;4.57;;
25980;SDS011;13772;52.996;9.124;2024-01-25T11:35:03;24.23;;;4.57;;
25980;SDS011;13772;52.996;9.124;2024-01-25T11:37:28;25.13;;;5.18;;
25980;SDS011;13772;52.996;9.124;2024-01-25T11:39:54;23.92;;;4.55;;
25980;SDS011;13772;52.996;9.124;2024-01-25T11:42:19;19.83;;;3.75;;
25980;SDS011;13772;52.996;9.124;2024-01-25T11:44:44;23.45;;;5.00;;
25980;SDS011;13772;52.996;9.124;2024-01-25T11:47:09;30.85;;;4.80;;
25980;SDS011;13772;52.996;9.124;2024-01-25T11:49:35;27.15;;;4.93;;
25980;SDS011;13772;52.996;9.124;2024-01-25T11:52:01;25.77;;;5.22;;
25980;SDS011;13772;52.996;9.124;2024-01-25T11:54:27;19.52;;;4.38;;
25980;SDS011;13772;52.996;9.124;2024-01-25T11:56:52;22.15;;;4.57;;
25980;SDS011;13772;52.996;9.124;2024-01-25T11:59:18;25.33;;;4.75;;
25980;SDS011;13772;52.996;9.124;2024-01-25T12:01:43;21.88;;;4.75;;
25980;SDS011;13772;52.996;9.124;2024-01-25T12:04:08;26.95;;;4.22;;
25980;SDS011;13772;52.996;9.124;2024-01-25T12:06:34;28.75;;;5.78;;
25980;SDS011;13772;52.996;9.124;2024-01-25T12:09:09;22.55;;;4.43;;
25980;SDS011;13772;52.996;9.124;2024-01-25T12:11:34;29.70;;;4.85;;
25980;SDS011;13772;52.996;9.124;2024-01-25T12:14:00;27.95;;;5.05;;
25980;SDS011;13772;52.996;9.124;2024-01-25T12:16:25;27.77;;;5.43;;
25980;SDS011;13772;52.996;9.124;2024-01-25T12:18:50;26.48;;;5.07;;
25980;SDS011;13772;52.996;9.124;2024-01-25T12:21:15;27.50;;;4.97;;
25980;SDS011;13772;52.996;9.124;2024-01-25T12:23:41;21.42;;;4.40;;
25980;SDS011;13772;52.996;9.124;2024-01-25T12:26:06;32.05;;;5.20;;
25980;SDS011;13772;52.996;9.124;2024-01-25T12:28:32;23.65;;;4.63;;
25980;SDS011;13772;52.996;9.124;2024-01-25T12:30:58;27.90;;;4.90;;
25980;SDS011;13772;52.996;9.124;2024-01-25T12:33:23;24.88;;;4.72;;
25980;SDS011;13772;52.996;9.124;2024-01-25T12:35:49;30.40;;;5.47;;
25980;SDS011;13772;52.996;9.124;2024-01-25T12:38:14;22.98;;;5.05;;
25980;SDS011;13772;52.996;9.124;2024-01-25T12:40:41;27.92;;;5.50;;
25980;SDS011;13772;52.996;9.124;2024-01-25T12:43:06;29.33;;;4.97;;
25980;SDS011;13772;52.996;9.124;2024-01-25T12:45:31;19.55;;;4.65;;
25980;SDS011;13772;52.996;9.124;2024-01-25T12:47:57;23.15;;;4.97;;
25980;SDS011;13772;52.996;9.124;2024-01-25T12:50:22;25.83;;;5.50;;
25980;SDS011;13772;52.996;9.124;2024-01-25T12:52:47;17.55;;;3.95;;
25980;SDS011;13772;52.996;9.124;2024-01-25T12:55:12;24.63;;;5.32;;
25980;SDS011;13772;52.996;9.124;2024-01-25T12:57:37;26.15;;;4.90;;
25980;SDS011;13772;52.996;9.124;2024-01-25T13:00:03;23.95;;;4.95;;
25980;SDS011;13772;52.996;9.124;2024-01-25T13:02:29;23.08;;;5.38;;
25980;SDS011;13772;52.996;9.124;2024-01-25T13:04:54;19.90;;;4.03;;
25980;SDS011;13772;52.996;9.124;2024-01-25T13:07:20;22.52;;;6.10;;
25980;SDS011;13772;52.996;9.124;2024-01-25T13:09:45;30.38;;;5.93;;
25980;SDS011;13772;52.996;9.124;2024-01-25T13:12:10;39.63;;;8.18;;
25980;SDS011;13772;52.996;9.124;2024-01-25T13:14:35;23.77;;;5.32;;
25980;SDS011;13772;52.996;9.124;2024-01-25T13:17:01;33.10;;;7.38;;
25980;SDS011;13772;52.996;9.124;2024-01-25T13:19:26;25.17;;;7.53;;
25980;SDS011;13772;52.996;9.124;2024-01-25T13:21:51;26.92;;;5.80;;
25980;SDS011;13772;52.996;9.124;2024-01-25T13:24:17;22.02;;;4.65;;
25980;SDS011;13772;52.996;9.124;2024-01-25T13:26:42;16.98;;;4.40;;
25980;SDS011;13772;52.996;9.124;2024-01-25T13:29:08;23.45;;;4.28;;
25980;SDS011;13772;52.996;9.124;2024-01-25T13:31:37;24.98;;;6.05;;
25980;SDS011;13772;52.996;9.124;2024-01-25T13:34:02;31.77;;;6.50;;
25980;SDS011;13772;52.996;9.124;2024-01-25T13:36:28;21.10;;;4.75;;
25980;SDS011;13772;52.996;9.124;2024-01-25T13:38:53;23.08;;;5.18;;
25980;SDS011;13772;52.996;9.124;2024-01-25T13:41:18;18.27;;;5.07;;
25980;SDS011;13772;52.996;9.124;2024-01-25T13:43:43;19.20;;;4.47;;
25980;SDS011;13772;52.996;9.124;2024-01-25T13:46:08;31.23;;;6.80;;
25980;SDS011;13772;52.996;9.124;2024-01-25T13:48:34;16.38;;;4.65;;
25980;SDS011;13772;52.996;9.124;2024-01-25T13:50:59;25.48;;;5.80;;
25980;SDS011;13772;52.996;9.124;2024-01-25T13:53:24;22.85;;;5.15;;
25980;SDS011;13772;52.996;9.124;2024-01-25T13:55:49;23.63;;;5.82;;
25980;SDS011;13772;52.996;9.124;2024-01-25T13:58:15;24.10;;;6.40;;
25980;SDS011;13772;52.996;9.124;2024-01-25T14:00:40;31.00;;;7.10;;
25980;SDS011;13772;52.996;9.124;2024-01-25T14:03:05;23.05;;;6.53;;
25980;SDS011;13772;52.996;9.124;2024-01-25T14:05:30;22.15;;;6.88;;
25980;SDS011;13772;52.996;9.124;2024-01-25T14:07:55;26.10;;;7.30;;
25980;SDS011;13772;52.996;9.124;2024-01-25T14:10:20;29.60;;;7.07;;
25980;SDS011;13772;52.996;9.124;2024-01-25T14:12:46;24.38;;;7.85;;
25980;SDS011;13772;52.996;9.124;2024-01-25T14:15:12;30.60;;;9.20;;
25980;SDS011;13772;52.996;9.124;2024-01-25T14:17:37;25.95;;;8.50;;
25980;SDS011;13772;52.996;9.124;2024-01-25T14:20:03;36.33;;;9.70;;
25980;SDS011;13772;52.996;9.124;2024-01-25T14:22:29;19.20;;;8.10;;
25980;SDS011;13772;52.996;9.124;2024-01-25T14:24:55;31.10;;;8.30;;
25980;SDS011;13772;52.996;9.124;2024-01-25T14:27:20;20.02;;;7.18;;
25980;SDS011;13772;52.996;9.124;2024-01-25T14:29:45;30.95;;;6.93;;
25980;SDS011;13772;52.996;9.124;2024-01-25T14:32:10;23.40;;;6.13;;
25980;SDS011;13772;52.996;9.124;2024-01-25T14:34:36;25.13;;;5.65;;
25980;SDS011;13772;52.996;9.124;2024-01-25T14:37:01;23.00;;;5.70;;
25980;SDS011;13772;52.996;9.124;2024-01-25T14:39:26;22.77;;;5.95;;
25980;SDS011;13772;52.996;9.124;2024-01-25T14:41:52;26.38;;;5.38;;
25980;SDS011;13772;52.996;9.124;2024-01-25T14:44:18;24.33;;;6.07;;
25980;SDS011;13772;52.996;9.124;2024-01-25T14:46:43;28.17;;;5.90;;
25980;SDS011;13772;52.996;9.124;2024-01-25T14:49:10;26.70;;;6.70;;
25980;SDS011;13772;52.996;9.124;2024-01-25T14:51:35;24.73;;;6.28;;
25980;SDS011;13772;52.996;9.124;2024-01-25T14:54:00;22.15;;;6.38;;
25980;SDS011;13772;52.996;9.124;2024-01-25T14:56:26;26.15;;;5.28;;
25980;SDS011;13772;52.996;9.124;2024-01-25T14:58:51;21.08;;;4.60;;
25980;SDS011;13772;52.996;9.124;2024-01-25T15:01:16;24.20;;;5.13;;
25980;SDS011;13772;52.996;9.124;2024-01-25T15:03:43;23.17;;;4.95;;
25980;SDS011;13772;52.996;9.124;2024-01-25T15:06:09;30.90;;;6.22;;
25980;SDS011;13772;52.996;9.124;2024-01-25T15:08:34;27.05;;;6.30;;
25980;SDS011;13772;52.996;9.124;2024-01-25T15:10:59;27.65;;;5.45;;
25980;SDS011;13772;52.996;9.124;2024-01-25T15:13:25;23.45;;;5.20;;
25980;SDS011;13772;52.996;9.124;2024-01-25T15:15:50;22.67;;;4.10;;
25980;SDS011;13772;52.996;9.124;2024-01-25T15:18:15;27.90;;;4.85;;
25980;SDS011;13772;52.996;9.124;2024-01-25T15:20:42;28.45;;;6.20;;
25980;SDS011;13772;52.996;9.124;2024-01-25T15:23:07;25.15;;;4.82;;
25980;SDS011;13772;52.996;9.124;2024-01-25T15:25:34;26.83;;;4.93;;
25980;SDS011;13772;52.996;9.124;2024-01-25T15:27:59;26.25;;;4.63;;
25980;SDS011;13772;52.996;9.124;2024-01-25T15:30:24;20.27;;;4.60;;
25980;SDS011;13772;52.996;9.124;2024-01-25T15:32:49;32.35;;;6.43;;
25980;SDS011;13772;52.996;9.124;2024-01-25T15:35:14;29.42;;;5.15;;
25980;SDS011;13772;52.996;9.124;2024-01-25T15:37:40;29.77;;;5.35;;
25980;SDS011;13772;52.996;9.124;2024-01-25T15:40:06;25.58;;;4.80;;
25980;SDS011;13772;52.996;9.124;2024-01-25T15:42:36;30.88;;;5.38;;
25980;SDS011;13772;52.996;9.124;2024-01-25T15:45:01;25.45;;;5.47;;
25980;SDS011;13772;52.996;9.124;2024-01-25T15:47:27;30.38;;;6.53;;
25980;SDS011;13772;52.996;9.124;2024-01-25T15:49:53;30.30;;;6.57;;
25980;SDS011;13772;52.996;9.124;2024-01-25T15:52:18;29.23;;;5.60;;
25980;SDS011;13772;52.996;9.124;2024-01-25T15:54:45;25.75;;;5.50;;
25980;SDS011;13772;52.996;9.124;2024-01-25T15:57:11;32.88;;;5.97;;
25980;SDS011;13772;52.996;9.124;2024-01-25T15:59:36;28.58;;;6.05;;
25980;SDS011;13772;52.996;9.124;2024-01-25T16:02:01;33.80;;;6.65;;
25980;SDS011;13772;52.996;9.124;2024-01-25T16:04:27;31.35;;;6.88;;
25980;SDS011;13772;52.996;9.124;2024-01-25T16:06:52;35.25;;;7.50;;
25980;SDS011;13772;52.996;9.124;2024-01-25T16:09:17;26.15;;;5.55;;
25980;SDS011;13772;52.996;9.124;2024-01-25T16:11:42;29.52;;;5.55;;
25980;SDS011;13772;52.996;9.124;2024-01-25T16:14:07;32.33;;;6.35;;
25980;SDS011;13772;52.996;9.124;2024-01-25T16:16:33;29.77;;;6.90;;
25980;SDS011;13772;52.996;9.124;2024-01-25T16:18:58;28.98;;;5.93;;
25980;SDS011;13772;52.996;9.124;2024-01-25T16:21:23;25.98;;;6.88;;
25980;SDS011;13772;52.996;9.124;2024-01-25T16:23:49;26.95;;;6.78;;
25980;SDS011;13772;52.996;9.124;2024-01-25T16:26:14;34.28;;;7.15;;
25980;SDS011;13772;52.996;9.124;2024-01-25T16:28:39;31.65;;;6.15;;
25980;SDS011;13772;52.996;9.124;2024-01-25T16:31:04;36.85;;;6.68;;
25980;SDS011;13772;52.996;9.124;2024-01-25T16:33:29;36.08;;;8.25;;
25980;SDS011;13772;52.996;9.124;2024-01-25T16:35:55;25.83;;;6.15;;
25980;SDS011;13772;52.996;9.124;2024-01-25T16:38:20;30.88;;;5.78;;
25980;SDS011;13772;52.996;9.124;2024-01-25T16:40:45;26.08;;;6.47;;
25980;SDS011;13772;52.996;9.124;2024-01-25T16:43:10;27.13;;;5.90;;
25980;SDS011;13772;52.996;9.124;2024-01-25T16:45:37;20.40;;;4.93;;
25980;SDS011;13772;52.996;9.124;2024-01-25T16:48:02;24.80;;;5.18;;
25980;SDS011;13772;52.996;9.124;2024-01-25T16:50:27;33.00;;;6.43;;
25980;SDS011;13772;52.996;9.124;2024-01-25T16:52:53;31.45;;;6.05;;
25980;SDS011;13772;52.996;9.124;2024-01-25T16:55:20;31.90;;;9.10;;
25980;SDS011;13772;52.996;9.124;2024-01-25T16:57:45;27.40;;;5.78;;
25980;SDS011;13772;52.996;9.124;2024-01-25T17:00:10;30.20;;;6.05;;
25980;SDS011;13772;52.996;9.124;2024-01-25T17:02:37;34.90;;;10.68;;
25980;SDS011;13772;52.996;9.124;2024-01-25T17:05:02;26.88;;;6.63;;
25980;SDS011;13772;52.996;9.124;2024-01-25T17:07:27;32.65;;;9.77;;
25980;SDS011;13772;52.996;9.124;2024-01-25T17:09:53;60.15;;;23.45;;
25980;SDS011;13772;52.996;9.124;2024-01-25T17:12:18;57.72;;;27.70;;
25980;SDS011;13772;52.996;9.124;2024-01-25T17:14:43;67.40;;;30.52;;
25980;SDS011;13772;52.996;9.124;2024-01-25T17:17:08;59.22;;;27.88;;
25980;SDS011;13772;52.996;9.124;2024-01-25T17:19:34;40.38;;;15.25;;
25980;SDS011;13772;52.996;9.124;2024-01-25T17:22:00;42.67;;;12.38;;
25980;SDS011;13772;52.996;9.124;2024-01-25T17:24:25;24.73;;;7.95;;
25980;SDS011;13772;52.996;9.124;2024-01-25T17:26:50;38.90;;;7.97;;
25980;SDS011;13772;52.996;9.124;2024-01-25T17:29:15;32.15;;;6.47;;
25980;SDS011;13772;52.996;9.124;2024-01-25T17:31:40;32.45;;;7.53;;
25980;SDS011;13772;52.996;9.124;2024-01-25T17:34:05;23.05;;;7.28;;
25980;SDS011;13772;52.996;9.124;2024-01-25T17:36:31;24.48;;;5.53;;
25980;SDS011;13772;52.996;9.124;2024-01-25T17:38:56;31.77;;;6.90;;
25980;SDS011;13772;52.996;9.124;2024-01-25T17:41:21;34.88;;;6.13;;
25980;SDS011;13772;52.996;9.124;2024-01-25T17:43:46;29.95;;;6.38;;
25980;SDS011;13772;52.996;9.124;2024-01-25T17:46:12;33.47;;;5.65;;
25980;SDS011;13772;52.996;9.124;2024-01-25T17:48:37;30.17;;;6.22;;
25980;SDS011;13772;52.996;9.124;2024-01-25T17:51:03;34.15;;;6.60;;
25980;SDS011;13772;52.996;9.124;2024-01-25T17:53:28;30.95;;;7.07;;
25980;SDS011;13772;52.996;9.124;2024-01-25T17:55:54;32.08;;;6.13;;
25980;SDS011;13772;52.996;9.124;2024-01-25T17:58:19;24.63;;;6.43;;
25980;SDS011;13772;52.996;9.124;2024-01-25T18:00:44;30.00;;;6.68;;
25980;SDS011;13772;52.996;9.124;2024-01-25T18:03:09;31.33;;;7.72;;
25980;SDS011;13772;52.996;9.124;2024-01-25T18:05:34;30.25;;;7.10;;
25980;SDS011;13772;52.996;9.124;2024-01-25T18:08:00;33.88;;;7.22;;
25980;SDS011;13772;52.996;9.124;2024-01-25T18:10:25;24.35;;;6.38;;
25980;SDS011;13772;52.996;9.124;2024-01-25T18:12:50;27.77;;;5.70;;
25980;SDS011;13772;52.996;9.124;2024-01-25T18:15:15;15.63;;;4.88;;
25980;SDS011;13772;52.996;9.124;2024-01-25T18:17:43;31.35;;;6.63;;
25980;SDS011;13772;52.996;9.124;2024-01-25T18:20:08;30.90;;;5.95;;
25980;SDS011;13772;52.996;9.124;2024-01-25T18:22:33;31.38;;;4.82;;
25980;SDS011;13772;52.996;9.124;2024-01-25T18:25:00;30.60;;;5.90;;
25980;SDS011;13772;52.996;9.124;2024-01-25T18:27:25;23.85;;;5.55;;
25980;SDS011;13772;52.996;9.124;2024-01-25T18:29:50;30.25;;;6.30;;
25980;SDS011;13772;52.996;9.124;2024-01-25T18:32:15;29.70;;;6.65;;
25980;SDS011;13772;52.996;9.124;2024-01-25T18:34:40;28.05;;;6.75;;
25980;SDS011;13772;52.996;9.124;2024-01-25T18:37:05;33.20;;;6.20;;
25980;SDS011;13772;52.996;9.124;2024-01-25T18:39:31;30.02;;;6.53;;
25980;SDS011;13772;52.996;9.124;2024-01-25T18:41:56;31.13;;;6.22;;
25980;SDS011;13772;52.996;9.124;2024-01-25T18:44:21;24.58;;;6.05;;
25980;SDS011;13772;52.996;9.124;2024-01-25T18:46:49;31.92;;;7.40;;
25980;SDS011;13772;52.996;9.124;2024-01-25T18:49:15;26.85;;;6.05;;
25980;SDS011;13772;52.996;9.124;2024-01-25T18:51:40;32.63;;;5.75;;
25980;SDS011;13772;52.996;9.124;2024-01-25T18:54:05;26.95;;;6.28;;
25980;SDS011;13772;52.996;9.124;2024-01-25T18:56:37;32.10;;;5.80;;
25980;SDS011;13772;52.996;9.124;2024-01-25T18:59:02;28.60;;;6.10;;
25980;SDS011;13772;52.996;9.124;2024-01-25T19:01:27;29.38;;;6.30;;
25980;SDS011;13772;52.996;9.124;2024-01-25T19:03:53;32.03;;;6.20;;
25980;SDS011;13772;52.996;9.124;2024-01-25T19:06:18;27.98;;;5.93;;
25980;SDS011;13772;52.996;9.124;2024-01-25T19:08:44;28.55;;;5.95;;
25980;SDS011;13772;52.996;9.124;2024-01-25T19:11:09;32.95;;;6.40;;
25980;SDS011;13772;52.996;9.124;2024-01-25T19:13:34;29.05;;;6.32;;
25980;SDS011;13772;52.996;9.124;2024-01-25T19:15:59;31.67;;;7.15;;
25980;SDS011;13772;52.996;9.124;2024-01-25T19:18:24;24.13;;;5.85;;
25980;SDS011;13772;52.996;9.124;2024-01-25T19:20:53;29.00;;;5.32;;
25980;SDS011;13772;52.996;9.124;2024-01-25T19:23:18;26.52;;;5.65;;
25980;SDS011;13772;52.996;9.124;2024-01-25T19:25:43;22.08;;;5.95;;
25980;SDS011;13772;52.996;9.124;2024-01-25T19:28:08;26.08;;;6.55;;
25980;SDS011;13772;52.996;9.124;2024-01-25T19:30:33;29.25;;;7.38;;
25980;SDS011;13772;52.996;9.124;2024-01-25T19:33:00;32.70;;;5.57;;
25980;SDS011;13772;52.996;9.124;2024-01-25T19:35:25;31.20;;;6.68;;
25980;SDS011;13772;52.996;9.124;2024-01-25T19:37:52;26.13;;;6.13;;
25980;SDS011;13772;52.996;9.124;2024-01-25T19:40:17;35.25;;;7.65;;
25980;SDS011;13772;52.996;9.124;2024-01-25T19:42:42;29.08;;;6.90;;
25980;SDS011;13772;52.996;9.124;2024-01-25T19:45:08;36.35;;;8.07;;
25980;SDS011;13772;52.996;9.124;2024-01-25T19:47:33;33.00;;;7.10;;
25980;SDS011;13772;52.996;9.124;2024-01-25T19:49:58;32.50;;;7.65;;
25980;SDS011;13772;52.996;9.124;2024-01-25T19:52:24;31.08;;;7.43;;
25980;SDS011;13772;52.996;9.124;2024-01-25T19:54:49;35.17;;;6.72;;
25980;SDS011;13772;52.996;9.124;2024-01-25T19:57:14;30.65;;;6.90;;
25980;SDS011;13772;52.996;9.124;2024-01-25T19:59:40;33.88;;;7.53;;
25980;SDS011;13772;52.996;9.124;2024-01-25T20:02:06;39.13;;;7.07;;
25980;SDS011;13772;52.996;9.124;2024-01-25T20:04:32;34.35;;;6.75;;
25980;SDS011;13772;52.996;9.124;2024-01-25T20:06:57;29.52;;;6.57;;
25980;SDS011;13772;52.996;9.124;2024-01-25T20:09:23;30.20;;;7.68;;
25980;SDS011;13772;52.996;9.124;2024-01-25T20:11:48;32.92;;;7.68;;
25980;SDS011;13772;52.996;9.124;2024-01-25T20:14:13;25.85;;;7.35;;
25980;SDS011;13772;52.996;9.124;2024-01-25T20:16:38;34.60;;;7.30;;
25980;SDS011;13772;52.996;9.124;2024-01-25T20:19:03;35.42;;;7.38;;
25980;SDS011;13772;52.996;9.124;2024-01-25T20:21:29;30.10;;;8.13;;
25980;SDS011;13772;52.996;9.124;2024-01-25T20:23:54;33.50;;;6.93;;
25980;SDS011;13772;52.996;9.124;2024-01-25T20:26:19;27.23;;;7.18;;
25980;SDS011;13772;52.996;9.124;2024-01-25T20:28:46;35.75;;;8.07;;
25980;SDS011;13772;52.996;9.124;2024-01-25T20:31:12;32.38;;;7.03;;
25980;SDS011;13772;52.996;9.124;2024-01-25T20:33:37;32.45;;;8.52;;
25980;SDS011;13772;52.996;9.124;2024-01-25T20:36:02;30.42;;;7.57;;
25980;SDS011;13772;52.996;9.124;2024-01-25T20:38:28;36.88;;;9.23;;
25980;SDS011;13772;52.996;9.124;2024-01-25T20:40:53;35.10;;;9.25;;
25980;SDS011;13772;52.996;9.124;2024-01-25T20:43:19;44.80;;;9.68;;
25980;SDS011;13772;52.996;9.124;2024-01-25T20:45:44;31.10;;;7.13;;
25980;SDS011;13772;52.996;9.124;2024-01-25T20:48:09;34.03;;;8.23;;
25980;SDS011;13772;52.996;9.124;2024-01-25T20:50:34;34.38;;;8.45;;
25980;SDS011;13772;52.996;9.124;2024-01-25T20:52:59;35.05;;;8.52;;
25980;SDS011;13772;52.996;9.124;2024-01-25T20:55:25;37.55;;;8.77;;
25980;SDS011;13772;52.996;9.124;2024-01-25T20:57:50;38.28;;;9.02;;
25980;SDS011;13772;52.996;9.124;2024-01-25T21:00:18;36.40;;;9.52;;
25980;SDS011;13772;52.996;9.124;2024-01-25T21:02:45;33.88;;;9.55;;
25980;SDS011;13772;52.996;9.124;2024-01-25T21:05:10;36.78;;;9.35;;
25980;SDS011;13772;52.996;9.124;2024-01-25T21:07:36;37.33;;;10.73;;
25980;SDS011;13772;52.996;9.124;2024-01-25T21:10:01;43.15;;;10.52;;
25980;SDS011;13772;52.996;9.124;2024-01-25T21:12:28;42.95;;;10.38;;
25980;SDS011;13772;52.996;9.124;2024-01-25T21:14:53;35.60;;;10.85;;
25980;SDS011;13772;52.996;9.124;2024-01-25T21:17:19;39.05;;;11.32;;
25980;SDS011;13772;52.996;9.124;2024-01-25T21:19:44;47.53;;;11.43;;
25980;SDS011;13772;52.996;9.124;2024-01-25T21:22:09;42.72;;;11.02;;
25980;SDS011;13772;52.996;9.124;2024-01-25T21:24:34;54.38;;;12.90;;
25980;SDS011;13772;52.996;9.124;2024-01-25T21:26:59;37.03;;;11.40;;